Keo, Arkansas
Current Conditions -  °F | °C
As of 12:53 PM on Friday 21 Nov 2014 (Local Time) from KLIT Reporting Station
Light Rain Light Rain  
Wind Chill: 44°   Ceiling: 400
Heat Index: 47°   Visibility: 2.5mi
Dew Point: 43°   Wind: 7mph
Humidity: 86%   Direction: 60°ENE
Pressure: 30.27"   Gusts: NA
Location:  34.6°N, 92.01°W
Report Text: KLIT 211853Z 06006KT 2 1/2SM -RA BR OVC004 08/06 A3027 RMK AO2 DZE08RAB08 SLP255 VIS 2V3 CIG RGD P0002 T00830061
Loading
Personal Weather Stations






























Interactive Weather Map New forecast layout! Learn more

10-Day Weather Forecast

Advertisements
Track Severe Weather on mobile